Swainton, New Jersey
Current Conditions -  °F | °C
As of 3:55 PM on Tuesday 27 Jan 2015 (Local Time) from KWWD Reporting Station
Scattered Clouds Scattered Clouds  
Wind Chill: 24°   Ceiling: Unl
Heat Index: 34°   Visibility: 10mi
Dew Point: 18°   Wind: 16mph
Humidity: 52%   Direction: 290°WNW
Pressure: 29.68"   Gusts: 23mph
Location:  39.1108°N, 74.8241°W
Report Text: KWWD 272055Z AUTO 29014G20KT 10SM SCT039 01/M08 A2968 RMK AO1 57003
Loading
Personal Weather Stations






























Interactive Weather Map New forecast layout! Learn more

10-Day Weather Forecast

Advertisements
Track Severe Weather on mobile